createdAt,value
2023-01-23T00:01:27.791Z,7.80
2023-01-23T00:03:55.725Z,7.80
2023-01-23T00:06:23.604Z,7.80
2023-01-23T00:08:50.924Z,7.80
2023-01-23T00:11:22.065Z,7.80
2023-01-23T00:13:49.623Z,7.80
2023-01-23T00:16:20.237Z,7.80
2023-01-23T00:18:48.237Z,7.80
2023-01-23T00:21:17.471Z,7.80
2023-01-23T00:23:46.554Z,7.80
2023-01-23T00:26:17.453Z,7.80
2023-01-23T00:28:46.964Z,7.90
2023-01-23T00:31:18.479Z,7.90
2023-01-23T00:33:45.715Z,7.90
2023-01-23T00:36:36.863Z,7.90
2023-01-23T00:39:06.790Z,7.90
2023-01-23T00:41:34.347Z,7.90
2023-01-23T00:44:01.464Z,7.80
2023-01-23T00:46:28.486Z,7.80
2023-01-23T00:48:58.398Z,7.80
2023-01-23T00:51:26.069Z,7.80
2023-01-23T00:53:53.168Z,7.80
2023-01-23T00:56:20.266Z,7.70
2023-01-23T00:58:47.354Z,7.70
2023-01-23T01:01:15.441Z,7.70
2023-01-23T01:03:43.311Z,7.70
2023-01-23T01:06:11.055Z,7.60
2023-01-23T01:08:38.714Z,7.60
2023-01-23T01:11:06.552Z,7.60
2023-01-23T01:13:33.784Z,7.60
2023-01-23T01:16:02.186Z,7.50
2023-01-23T01:18:29.903Z,7.40
2023-01-23T01:20:57.898Z,7.40
2023-01-23T01:23:25.327Z,7.30
2023-01-23T01:25:52.813Z,7.20
2023-01-23T01:28:21.192Z,7.10
2023-01-23T01:30:48.297Z,7.00
2023-01-23T01:33:15.249Z,6.90
2023-01-23T01:35:42.316Z,6.90
2023-01-23T01:38:09.666Z,6.90
2023-01-23T01:40:37.434Z,6.90
2023-01-23T01:43:08.752Z,6.90
2023-01-23T01:45:55.427Z,6.90
2023-01-23T01:48:26.657Z,6.90
2023-01-23T01:50:54.132Z,7.00
2023-01-23T01:53:25.762Z,7.00
2023-01-23T01:55:53.422Z,7.10
2023-01-23T01:58:21.973Z,7.10
2023-01-23T02:00:49.102Z,7.10
2023-01-23T02:03:17.612Z,7.10
2023-01-23T02:05:47.412Z,7.20
2023-01-23T02:08:26.459Z,7.10
2023-01-23T02:10:53.709Z,7.20
2023-01-23T02:13:35.983Z,7.20
2023-01-23T02:16:15.640Z,7.20
2023-01-23T02:18:47.598Z,7.10
2023-01-23T02:21:17.642Z,7.10
2023-01-23T02:24:06.939Z,7.10
2023-01-23T02:26:38.486Z,7.10
2023-01-23T02:29:06.401Z,7.10
2023-01-23T02:31:46.044Z,7.10
2023-01-23T02:34:14.855Z,7.10
2023-01-23T02:36:47.412Z,7.10
2023-01-23T02:39:17.311Z,7.10
2023-01-23T02:41:50.838Z,7.20
2023-01-23T02:44:29.282Z,7.20
2023-01-23T02:47:01.917Z,7.20
2023-01-23T02:49:29.938Z,7.30
2023-01-23T02:51:57.605Z,7.30
2023-01-23T02:54:25.078Z,7.30
2023-01-23T02:56:53.031Z,7.30
2023-01-23T02:59:40.872Z,7.30
2023-01-23T03:02:08.818Z,7.30
2023-01-23T03:04:35.797Z,7.40
2023-01-23T03:07:02.792Z,7.40
2023-01-23T03:09:29.897Z,7.40
2023-01-23T03:11:56.849Z,7.40
2023-01-23T03:14:25.150Z,7.40
2023-01-23T03:16:54.169Z,7.40
2023-01-23T03:19:25.445Z,7.30
2023-01-23T03:21:53.478Z,7.40
2023-01-23T03:24:21.143Z,7.30
2023-01-23T03:26:49.723Z,7.30
2023-01-23T03:29:41.457Z,7.20
2023-01-23T03:32:10.774Z,7.20
2023-01-23T03:34:38.115Z,7.10
2023-01-23T03:37:07.919Z,7.10
2023-01-23T03:39:55.055Z,7.10
2023-01-23T03:42:22.789Z,7.20
2023-01-23T03:44:52.943Z,7.20
2023-01-23T03:47:23.693Z,7.20
2023-01-23T03:49:50.715Z,7.20
2023-01-23T03:52:18.812Z,7.10
2023-01-23T03:54:46.060Z,7.10
2023-01-23T03:57:14.040Z,7.20
2023-01-23T03:59:53.048Z,7.20
2023-01-23T04:02:24.673Z,7.10
2023-01-23T04:04:51.769Z,7.20
2023-01-23T04:07:18.912Z,7.20
2023-01-23T04:09:45.891Z,7.20
2023-01-23T04:12:13.009Z,7.10
2023-01-23T04:14:43.874Z,7.10
2023-01-23T04:17:13.276Z,7.00
2023-01-23T04:19:41.233Z,7.00
2023-01-23T04:22:09.918Z,6.90
2023-01-23T04:24:43.175Z,6.90
2023-01-23T04:27:10.215Z,6.90
2023-01-23T04:29:37.821Z,6.90
2023-01-23T04:32:04.915Z,6.90
2023-01-23T04:34:35.668Z,6.80
2023-01-23T04:37:02.835Z,6.80
2023-01-23T04:39:31.605Z,6.70
2023-01-23T04:41:59.017Z,6.70
2023-01-23T04:44:30.760Z,6.70
2023-01-23T04:47:16.034Z,6.70
2023-01-23T04:49:43.583Z,6.70
2023-01-23T04:52:10.706Z,6.60
2023-01-23T04:54:42.008Z,6.60
2023-01-23T04:57:09.222Z,6.60
2023-01-23T04:59:36.568Z,6.50
2023-01-23T05:02:03.563Z,6.50
2023-01-23T05:04:37.928Z,6.40
2023-01-23T05:07:05.240Z,6.40
2023-01-23T05:09:39.930Z,6.40
2023-01-23T05:12:08.010Z,6.40
2023-01-23T05:14:38.042Z,6.40
2023-01-23T05:17:05.397Z,6.40
2023-01-23T05:19:36.433Z,6.50
2023-01-23T05:22:05.814Z,6.50
2023-01-23T05:24:33.020Z,6.50
2023-01-23T05:27:00.034Z,6.50
2023-01-23T05:29:30.558Z,6.60
2023-01-23T05:32:11.946Z,6.60
2023-01-23T05:34:39.229Z,6.70
2023-01-23T05:37:25.480Z,6.60
2023-01-23T05:40:00.100Z,6.70
2023-01-23T05:42:45.700Z,6.60
2023-01-23T05:45:47.813Z,6.70
2023-01-23T05:48:25.407Z,6.80
2023-01-23T05:50:53.169Z,6.80
2023-01-23T05:53:21.580Z,6.80
2023-01-23T05:55:48.851Z,6.80
2023-01-23T05:58:16.282Z,6.80
2023-01-23T06:01:22.483Z,6.80
2023-01-23T06:04:07.756Z,6.80
2023-01-23T06:06:43.531Z,6.80
2023-01-23T06:09:11.173Z,6.80
2023-01-23T06:11:39.478Z,6.80
2023-01-23T06:14:08.242Z,6.80
2023-01-23T06:16:35.522Z,6.80
2023-01-23T06:19:03.324Z,6.80
2023-01-23T06:21:32.934Z,6.90
2023-01-23T06:24:00.233Z,6.90
2023-01-23T06:26:28.285Z,6.90
2023-01-23T06:28:56.940Z,6.90
2023-01-23T06:31:24.065Z,6.90
2023-01-23T06:33:54.598Z,6.90
2023-01-23T06:36:28.106Z,7.00
2023-01-23T06:38:56.134Z,6.90
2023-01-23T06:41:28.402Z,6.90
2023-01-23T06:44:00.031Z,6.90
2023-01-23T06:46:28.428Z,6.80
2023-01-23T06:48:55.475Z,6.80
2023-01-23T06:51:22.561Z,6.70
2023-01-23T06:53:49.983Z,6.70
2023-01-23T06:56:17.507Z,6.70
2023-01-23T06:58:46.082Z,6.70
2023-01-23T07:01:24.091Z,6.70
2023-01-23T07:04:16.017Z,6.80
2023-01-23T07:06:44.461Z,6.90
2023-01-23T07:09:14.475Z,6.90
2023-01-23T07:11:45.905Z,6.90
2023-01-23T07:14:14.163Z,7.00
2023-01-23T07:16:42.339Z,7.00
2023-01-23T07:19:09.607Z,7.00
2023-01-23T07:21:39.238Z,7.10
2023-01-23T07:24:06.571Z,7.10
2023-01-23T07:26:33.522Z,7.10
2023-01-23T07:29:00.410Z,7.10
2023-01-23T07:31:27.372Z,7.10
2023-01-23T07:33:54.401Z,7.20
2023-01-23T07:36:21.317Z,7.20
2023-01-23T07:38:48.245Z,7.20
2023-01-23T07:41:15.129Z,7.20
2023-01-23T07:43:42.099Z,7.20
2023-01-23T07:46:09.739Z,7.20
2023-01-23T07:48:37.823Z,7.20
2023-01-23T07:51:05.220Z,7.20
2023-01-23T07:53:33.901Z,7.30
2023-01-23T07:56:05.058Z,7.20
2023-01-23T07:58:32.545Z,7.20
2023-01-23T08:00:59.806Z,7.20
2023-01-23T08:03:29.063Z,7.20
2023-01-23T08:05:56.133Z,7.20
2023-01-23T08:08:23.102Z,7.20
2023-01-23T08:10:50.059Z,7.20
2023-01-23T08:13:17.105Z,7.20
2023-01-23T08:15:44.033Z,7.20
2023-01-23T08:18:10.957Z,7.20
2023-01-23T08:20:37.859Z,7.20
2023-01-23T08:23:04.833Z,7.30
2023-01-23T08:25:31.971Z,7.30
2023-01-23T08:27:58.934Z,7.30
2023-01-23T08:30:26.074Z,7.40
2023-01-23T08:32:53.097Z,7.50
2023-01-23T08:35:20.016Z,7.50
2023-01-23T08:37:46.933Z,7.50
2023-01-23T08:40:14.026Z,7.50
2023-01-23T08:42:40.988Z,7.60
2023-01-23T08:45:08.546Z,7.60
2023-01-23T08:47:36.783Z,7.70
2023-01-23T08:50:05.654Z,7.70
2023-01-23T08:52:34.690Z,7.70
2023-01-23T08:55:01.916Z,7.70
2023-01-23T08:57:28.966Z,7.70
2023-01-23T08:59:56.195Z,7.70
2023-01-23T09:02:23.359Z,7.70
2023-01-23T09:04:50.663Z,7.70
2023-01-23T09:07:17.537Z,7.70
2023-01-23T09:09:44.528Z,7.70
2023-01-23T09:12:11.517Z,7.70
2023-01-23T09:14:38.527Z,7.70
2023-01-23T09:17:06.169Z,7.70
2023-01-23T09:19:33.439Z,7.80
2023-01-23T09:22:00.603Z,7.80
2023-01-23T09:24:27.564Z,7.80
2023-01-23T09:26:54.594Z,7.90
2023-01-23T09:29:21.665Z,7.90
2023-01-23T09:31:48.675Z,7.90
2023-01-23T09:34:17.257Z,7.90
2023-01-23T09:36:44.609Z,7.90
2023-01-23T09:39:11.966Z,7.90
2023-01-23T09:41:40.527Z,7.90
2023-01-23T09:44:16.029Z,7.90
2023-01-23T09:47:02.309Z,7.90
2023-01-23T09:49:35.009Z,8.00
2023-01-23T09:52:21.516Z,8.00
2023-01-23T09:54:53.572Z,7.90
2023-01-23T09:57:28.636Z,8.00
2023-01-23T10:00:05.259Z,8.00
2023-01-23T10:02:32.656Z,8.00
2023-01-23T10:05:02.733Z,8.00
2023-01-23T10:07:47.932Z,8.00
2023-01-23T10:10:39.725Z,8.10
2023-01-23T10:13:25.551Z,8.00
2023-01-23T10:16:21.137Z,8.10
2023-01-23T10:18:59.956Z,8.10
2023-01-23T10:21:55.783Z,8.10
2023-01-23T10:24:46.117Z,8.10
2023-01-23T10:27:19.947Z,8.10
2023-01-23T10:30:00.633Z,8.10
2023-01-23T10:32:39.210Z,8.10
2023-01-23T10:35:13.322Z,8.20
2023-01-23T10:37:56.557Z,8.20
2023-01-23T10:40:43.665Z,8.20
2023-01-23T10:43:16.044Z,8.20
2023-01-23T10:45:45.387Z,8.20
2023-01-23T10:48:27.515Z,8.20
2023-01-23T10:50:55.493Z,8.20
2023-01-23T10:53:22.722Z,8.30
2023-01-23T10:55:52.635Z,8.30
2023-01-23T10:58:31.613Z,8.30
2023-01-23T11:00:58.910Z,8.30
2023-01-23T11:03:32.623Z,8.30
2023-01-23T11:06:04.077Z,8.30
2023-01-23T11:08:49.926Z,8.30
2023-01-23T11:11:16.867Z,8.40
2023-01-23T11:13:50.098Z,8.40
2023-01-23T11:16:21.547Z,8.40
2023-01-23T11:19:07.523Z,8.50
2023-01-23T11:21:37.528Z,8.50
2023-01-23T11:24:24.802Z,8.60
2023-01-23T11:27:04.975Z,8.60
2023-01-23T11:30:06.552Z,8.60
2023-01-23T11:32:41.207Z,8.60
2023-01-23T11:35:15.765Z,8.70
2023-01-23T11:37:42.807Z,8.70
2023-01-23T11:40:20.213Z,8.70
2023-01-23T11:42:47.647Z,8.70
2023-01-23T11:45:46.547Z,8.70
2023-01-23T11:48:31.594Z,8.70
2023-01-23T11:51:17.551Z,8.70
2023-01-23T11:53:54.960Z,8.70
2023-01-23T11:56:40.251Z,8.70
2023-01-23T11:59:15.485Z,8.70
2023-01-23T12:02:03.062Z,8.70
2023-01-23T12:04:46.695Z,8.60
2023-01-23T12:07:21.125Z,8.60
2023-01-23T12:10:01.409Z,8.60
2023-01-23T12:13:07.113Z,8.60
2023-01-23T12:15:55.791Z,8.60
2023-01-23T12:18:49.338Z,8.60
2023-01-23T12:21:22.942Z,8.60
2023-01-23T12:23:58.416Z,8.70
2023-01-23T12:26:28.331Z,8.70
2023-01-23T12:28:58.023Z,8.60
2023-01-23T12:31:45.986Z,8.60
2023-01-23T12:34:31.208Z,8.60
2023-01-23T12:37:30.310Z,8.70
2023-01-23T12:40:13.530Z,8.60
2023-01-23T12:43:05.770Z,8.60
2023-01-23T12:45:33.755Z,8.50
2023-01-23T12:48:15.475Z,8.50
2023-01-23T12:50:56.492Z,8.50
2023-01-23T12:53:24.084Z,8.50
2023-01-23T12:56:18.596Z,8.60
2023-01-23T12:59:14.195Z,8.60
2023-01-23T13:01:46.686Z,8.60
2023-01-23T13:04:44.278Z,8.70
2023-01-23T13:07:35.881Z,8.60
2023-01-23T13:10:05.863Z,8.60
2023-01-23T13:12:33.171Z,8.70
2023-01-23T13:15:27.703Z,8.70
2023-01-23T13:18:02.737Z,8.70
2023-01-23T13:20:53.941Z,8.70
2023-01-23T13:23:26.890Z,8.70
2023-01-23T13:26:12.379Z,8.70
2023-01-23T13:28:54.018Z,8.70
2023-01-23T13:31:34.832Z,8.70
2023-01-23T13:34:23.097Z,8.70
2023-01-23T13:36:51.684Z,8.70
2023-01-23T13:39:19.644Z,8.60
2023-01-23T13:41:49.086Z,8.60
2023-01-23T13:44:41.003Z,8.60
2023-01-23T14:22:44.230Z,7.80
2023-01-23T14:25:18.371Z,7.90
2023-01-23T14:27:54.636Z,7.90
2023-01-23T14:30:27.193Z,8.00
2023-01-23T14:32:54.956Z,8.00
2023-01-23T14:35:30.955Z,8.00
2023-01-23T14:38:05.059Z,8.00
2023-01-23T14:40:43.448Z,8.00
2023-01-23T14:43:26.824Z,8.00
2023-01-23T14:46:01.644Z,8.00
2023-01-23T14:48:32.287Z,8.10
2023-01-23T14:51:05.660Z,8.20
2023-01-23T14:53:32.724Z,8.20
2023-01-23T14:56:01.974Z,8.30
2023-01-23T14:58:30.294Z,8.30
2023-01-23T15:00:58.021Z,8.30
2023-01-23T15:03:36.743Z,8.30
2023-01-23T15:06:08.511Z,8.30
2023-01-23T15:08:36.744Z,8.30
2023-01-23T15:11:06.610Z,8.40
2023-01-23T15:13:55.385Z,8.40
2023-01-23T15:16:24.871Z,8.40
2023-01-23T15:19:06.235Z,8.40
2023-01-23T15:21:40.067Z,8.40
2023-01-23T15:24:20.045Z,8.40
2023-01-23T15:26:59.394Z,8.40
2023-01-23T15:29:27.267Z,8.30
2023-01-23T15:31:55.470Z,8.30
2023-01-23T15:34:26.794Z,8.30
2023-01-23T15:37:06.573Z,8.30
2023-01-23T15:39:53.255Z,8.30
2023-01-23T15:42:20.115Z,8.30
2023-01-23T15:44:47.014Z,8.30
2023-01-23T15:47:13.999Z,8.30
2023-01-23T15:49:41.199Z,8.30
2023-01-23T15:52:17.120Z,8.30
2023-01-23T15:54:44.299Z,8.20
2023-01-23T15:57:13.121Z,8.20
2023-01-23T15:59:40.334Z,8.20
2023-01-23T16:02:29.208Z,8.20
2023-01-23T16:04:56.988Z,8.20
2023-01-23T16:07:34.581Z,8.20
2023-01-23T16:10:24.160Z,8.10
2023-01-23T16:12:53.400Z,8.20
2023-01-23T16:15:25.633Z,8.20
2023-01-23T16:17:53.407Z,8.20
2023-01-23T16:20:24.143Z,8.20
2023-01-23T16:22:54.553Z,8.30
2023-01-23T16:25:44.040Z,8.30
2023-01-23T16:28:19.677Z,8.20
2023-01-23T16:30:47.998Z,8.30
2023-01-23T16:33:15.310Z,8.30
2023-01-23T16:35:42.908Z,8.30
2023-01-23T16:38:23.413Z,8.30
2023-01-23T16:40:53.213Z,8.20
2023-01-23T16:43:21.198Z,8.20
2023-01-23T16:45:48.708Z,8.30
2023-01-23T16:48:26.231Z,8.30
2023-01-23T16:50:59.735Z,8.30
2023-01-23T16:53:38.260Z,8.30
2023-01-23T16:56:06.850Z,8.30
2023-01-23T16:58:41.180Z,8.30
2023-01-23T17:01:15.448Z,8.30
2023-01-23T17:03:42.887Z,8.30
2023-01-23T17:06:15.224Z,8.30
2023-01-23T17:08:42.307Z,8.30
2023-01-23T17:11:19.423Z,8.30
2023-01-23T17:13:47.540Z,8.30
2023-01-23T17:16:26.422Z,8.30
2023-01-23T17:18:57.085Z,8.30
2023-01-23T17:21:27.580Z,8.30
2023-01-23T17:23:55.244Z,8.30
2023-01-23T17:26:22.256Z,8.30
2023-01-23T17:28:49.532Z,8.40
2023-01-23T17:31:21.953Z,8.40
2023-01-23T17:33:49.569Z,8.40
2023-01-23T17:36:17.079Z,8.40
2023-01-23T17:38:44.471Z,8.40
2023-01-23T17:41:16.022Z,8.40
2023-01-23T17:43:48.329Z,8.40
2023-01-23T17:46:29.117Z,8.40
2023-01-23T17:48:56.888Z,8.40
2023-01-23T17:51:25.122Z,8.40
2023-01-23T17:53:52.630Z,8.40
2023-01-23T17:56:19.655Z,8.30
2023-01-23T17:58:46.783Z,8.30
2023-01-23T18:01:25.061Z,8.30
2023-01-23T18:03:53.211Z,8.30
2023-01-23T18:06:20.541Z,8.30
2023-01-23T18:08:47.663Z,8.20
2023-01-23T18:11:23.740Z,8.20
2023-01-23T18:14:09.700Z,8.20
2023-01-23T18:16:42.820Z,8.20
2023-01-23T18:19:22.079Z,8.20
2023-01-23T18:21:51.735Z,8.20
2023-01-23T18:24:30.173Z,8.20
2023-01-23T18:27:00.118Z,8.20
2023-01-23T18:29:42.130Z,8.20
2023-01-23T18:32:37.184Z,8.20
2023-01-23T18:35:52.990Z,8.20
2023-01-23T18:38:31.099Z,8.20
2023-01-23T18:41:16.899Z,8.20
2023-01-23T18:44:05.515Z,8.20
2023-01-23T18:46:32.828Z,8.20
2023-01-23T18:49:00.457Z,8.10
2023-01-23T18:51:46.639Z,8.10
2023-01-23T18:54:16.412Z,8.00
2023-01-23T18:56:52.684Z,8.00
2023-01-23T18:59:32.180Z,8.00
2023-01-23T19:02:34.038Z,8.00
2023-01-23T19:05:28.756Z,8.10
2023-01-23T19:07:57.006Z,8.10
2023-01-23T19:10:27.066Z,8.10
2023-01-23T19:13:20.135Z,8.20
2023-01-23T19:15:53.145Z,8.10
2023-01-23T19:18:46.546Z,8.20
2023-01-23T19:21:25.076Z,8.20
2023-01-23T19:24:11.083Z,8.20
2023-01-23T19:26:40.772Z,8.20
2023-01-23T19:29:20.925Z,8.20
2023-01-23T19:32:03.416Z,8.20
2023-01-23T19:34:31.649Z,8.20
2023-01-23T19:36:58.580Z,8.20
2023-01-23T19:39:25.547Z,8.20
2023-01-23T19:41:53.294Z,8.20
2023-01-23T19:44:24.199Z,8.30
2023-01-23T19:46:51.919Z,8.30
2023-01-23T19:49:19.138Z,8.40
2023-01-23T19:51:46.527Z,8.40
2023-01-23T19:54:15.279Z,8.40
2023-01-23T19:56:42.660Z,8.40
2023-01-23T19:59:10.602Z,8.40
2023-01-23T20:01:43.271Z,8.40
2023-01-23T20:04:19.258Z,8.40
2023-01-23T20:06:48.762Z,8.40
2023-01-23T20:09:16.220Z,8.40
2023-01-23T20:11:44.690Z,8.40
2023-01-23T20:14:12.805Z,8.40
2023-01-23T20:16:42.797Z,8.40
2023-01-23T20:19:16.565Z,8.40
2023-01-23T20:21:43.706Z,8.40
2023-01-23T20:24:11.197Z,8.40
2023-01-23T20:26:38.971Z,8.40
2023-01-23T20:29:07.756Z,8.40
2023-01-23T20:31:35.775Z,8.40
2023-01-23T20:34:03.569Z,8.40
2023-01-23T20:36:30.693Z,8.40
2023-01-23T20:38:57.992Z,8.40
2023-01-23T20:41:25.828Z,8.40
2023-01-23T20:43:53.499Z,8.40
2023-01-23T20:46:20.695Z,8.40
2023-01-23T20:48:47.772Z,8.30
2023-01-23T20:51:16.574Z,8.30
2023-01-23T20:53:44.873Z,8.30
2023-01-23T20:56:14.522Z,8.30
2023-01-23T20:59:03.040Z,8.30
2023-01-23T21:01:52.717Z,8.30
2023-01-23T21:04:20.096Z,8.30
2023-01-23T21:06:47.299Z,8.30
2023-01-23T21:09:14.423Z,8.30
2023-01-23T21:11:41.461Z,8.40
2023-01-23T21:14:08.850Z,8.40
2023-01-23T21:16:35.937Z,8.40
2023-01-23T21:19:03.522Z,8.40
2023-01-23T21:21:30.518Z,8.40
2023-01-23T21:23:57.682Z,8.40
2023-01-23T21:26:26.954Z,8.30
2023-01-23T21:28:55.575Z,8.30
2023-01-23T21:31:25.866Z,8.30
2023-01-23T21:33:53.404Z,8.30
2023-01-23T21:36:23.842Z,8.30
2023-01-23T21:38:51.515Z,8.20
2023-01-23T21:41:18.991Z,8.20
2023-01-23T21:43:46.098Z,8.20
2023-01-23T21:46:13.197Z,8.20
2023-01-23T21:48:40.325Z,8.20
2023-01-23T21:51:15.610Z,8.20
2023-01-23T21:53:44.687Z,8.20
2023-01-23T21:56:14.079Z,8.30
2023-01-23T21:58:42.401Z,8.30
2023-01-23T22:01:42.600Z,8.30
2023-01-23T22:04:16.527Z,8.30
2023-01-23T22:06:45.020Z,8.30
2023-01-23T22:09:17.765Z,8.30
2023-01-23T22:11:45.488Z,8.30
2023-01-23T22:14:12.567Z,8.40
2023-01-23T22:16:48.578Z,8.40
2023-01-23T22:19:25.066Z,8.40
2023-01-23T22:21:57.140Z,8.40
2023-01-23T22:24:24.231Z,8.50
2023-01-23T22:26:51.754Z,8.40
2023-01-23T22:29:18.748Z,8.40
2023-01-23T22:31:45.853Z,8.40
2023-01-23T22:34:12.868Z,8.40
2023-01-23T22:36:39.891Z,8.40
2023-01-23T22:39:06.980Z,8.40
2023-01-23T22:41:33.940Z,8.50
2023-01-23T22:44:01.047Z,8.50
2023-01-23T22:46:29.072Z,8.50
2023-01-23T22:48:56.201Z,8.50
2023-01-23T22:51:25.976Z,8.50
2023-01-23T22:53:54.219Z,8.60
2023-01-23T22:56:21.728Z,8.60
2023-01-23T22:58:50.525Z,8.60
2023-01-23T23:01:18.473Z,8.60
2023-01-23T23:03:45.888Z,8.50
2023-01-23T23:06:15.037Z,8.60
2023-01-23T23:08:42.774Z,8.60
2023-01-23T23:11:12.556Z,8.60
2023-01-23T23:13:41.047Z,8.60
2023-01-23T23:16:15.337Z,8.60
2023-01-23T23:18:42.346Z,8.60
2023-01-23T23:21:12.891Z,8.60
2023-01-23T23:23:40.172Z,8.60
2023-01-23T23:26:09.694Z,8.60
2023-01-23T23:28:38.237Z,8.60
2023-01-23T23:31:06.683Z,8.60
2023-01-23T23:33:33.696Z,8.60
2023-01-23T23:36:00.998Z,8.60
2023-01-23T23:38:27.979Z,8.60
2023-01-23T23:41:00.689Z,8.60
2023-01-23T23:43:28.248Z,8.60
2023-01-23T23:46:01.147Z,8.60
2023-01-23T23:48:29.865Z,8.60
2023-01-23T23:51:00.153Z,8.60
2023-01-23T23:53:27.505Z,8.60
2023-01-23T23:55:54.622Z,8.70
2023-01-23T23:58:23.847Z,8.70
